sensor_id;sensor_type;location;lat;lon;timestamp;P1;durP1;ratioP1;P2;durP2;ratioP2
75419;SDS011;63998;52.488;13.428;2024-01-30T00:01:47;20.23;;;11.70;;
75419;SDS011;63998;52.488;13.428;2024-01-30T00:04:13;23.25;;;12.20;;
75419;SDS011;63998;52.488;13.428;2024-01-30T00:06:38;13.15;;;8.00;;
75419;SDS011;63998;52.488;13.428;2024-01-30T00:09:08;15.98;;;8.40;;
75419;SDS011;63998;52.488;13.428;2024-01-30T00:11:36;16.58;;;8.88;;
75419;SDS011;63998;52.488;13.428;2024-01-30T00:14:05;14.65;;;8.25;;
75419;SDS011;63998;52.488;13.428;2024-01-30T00:16:30;15.80;;;8.63;;
75419;SDS011;63998;52.488;13.428;2024-01-30T00:18:56;14.02;;;8.05;;
75419;SDS011;63998;52.488;13.428;2024-01-30T00:21:22;13.05;;;7.47;;
75419;SDS011;63998;52.488;13.428;2024-01-30T00:23:50;14.27;;;8.13;;
75419;SDS011;63998;52.488;13.428;2024-01-30T00:26:16;14.18;;;7.47;;
75419;SDS011;63998;52.488;13.428;2024-01-30T00:28:41;14.13;;;7.70;;
75419;SDS011;63998;52.488;13.428;2024-01-30T00:31:07;13.95;;;7.38;;
75419;SDS011;63998;52.488;13.428;2024-01-30T00:33:33;12.30;;;7.03;;
75419;SDS011;63998;52.488;13.428;2024-01-30T00:36:00;13.93;;;7.10;;
75419;SDS011;63998;52.488;13.428;2024-01-30T00:38:26;12.00;;;7.22;;
75419;SDS011;63998;52.488;13.428;2024-01-30T00:40:51;11.65;;;6.10;;
75419;SDS011;63998;52.488;13.428;2024-01-30T00:43:17;11.27;;;7.72;;
75419;SDS011;63998;52.488;13.428;2024-01-30T00:45:45;10.23;;;6.70;;
75419;SDS011;63998;52.488;13.428;2024-01-30T00:48:13;12.98;;;7.50;;
75419;SDS011;63998;52.488;13.428;2024-01-30T00:50:54;11.82;;;7.03;;
75419;SDS011;63998;52.488;13.428;2024-01-30T00:53:20;14.00;;;6.70;;
75419;SDS011;63998;52.488;13.428;2024-01-30T00:55:48;10.90;;;6.10;;
75419;SDS011;63998;52.488;13.428;2024-01-30T00:58:16;13.18;;;6.45;;
75419;SDS011;63998;52.488;13.428;2024-01-30T01:00:44;10.93;;;6.18;;
75419;SDS011;63998;52.488;13.428;2024-01-30T01:03:12;10.75;;;6.07;;
75419;SDS011;63998;52.488;13.428;2024-01-30T01:05:39;10.13;;;5.95;;
75419;SDS011;63998;52.488;13.428;2024-01-30T01:08:04;11.73;;;6.25;;
75419;SDS011;63998;52.488;13.428;2024-01-30T01:10:30;11.65;;;6.03;;
75419;SDS011;63998;52.488;13.428;2024-01-30T01:12:55;10.60;;;6.20;;
75419;SDS011;63998;52.488;13.428;2024-01-30T01:15:20;9.63;;;6.00;;
75419;SDS011;63998;52.488;13.428;2024-01-30T01:17:46;11.10;;;6.45;;
75419;SDS011;63998;52.488;13.428;2024-01-30T01:20:11;10.93;;;5.82;;
75419;SDS011;63998;52.488;13.428;2024-01-30T01:22:37;15.45;;;6.32;;
75419;SDS011;63998;52.488;13.428;2024-01-30T01:25:03;10.25;;;6.30;;
75419;SDS011;63998;52.488;13.428;2024-01-30T01:27:32;10.60;;;6.57;;
75419;SDS011;63998;52.488;13.428;2024-01-30T01:29:58;12.10;;;6.38;;
75419;SDS011;63998;52.488;13.428;2024-01-30T01:32:23;11.05;;;6.05;;
75419;SDS011;63998;52.488;13.428;2024-01-30T01:34:48;11.70;;;6.20;;
75419;SDS011;63998;52.488;13.428;2024-01-30T01:37:16;13.85;;;6.78;;
75419;SDS011;63998;52.488;13.428;2024-01-30T01:39:52;15.48;;;7.60;;
75419;SDS011;63998;52.488;13.428;2024-01-30T01:42:17;14.60;;;6.88;;
75419;SDS011;63998;52.488;13.428;2024-01-30T01:44:43;13.07;;;6.78;;
75419;SDS011;63998;52.488;13.428;2024-01-30T01:47:26;12.90;;;6.95;;
75419;SDS011;63998;52.488;13.428;2024-01-30T01:49:51;14.52;;;7.38;;
75419;SDS011;63998;52.488;13.428;2024-01-30T01:52:19;12.23;;;6.95;;
75419;SDS011;63998;52.488;13.428;2024-01-30T01:54:45;12.88;;;6.93;;
75419;SDS011;63998;52.488;13.428;2024-01-30T01:57:10;15.90;;;7.43;;
75419;SDS011;63998;52.488;13.428;2024-01-30T01:59:36;14.20;;;7.10;;
75419;SDS011;63998;52.488;13.428;2024-01-30T02:02:11;13.80;;;7.57;;
75419;SDS011;63998;52.488;13.428;2024-01-30T02:04:45;12.65;;;6.65;;
75419;SDS011;63998;52.488;13.428;2024-01-30T02:07:10;13.93;;;6.72;;
75419;SDS011;63998;52.488;13.428;2024-01-30T02:09:36;11.48;;;7.15;;
75419;SDS011;63998;52.488;13.428;2024-01-30T02:12:04;14.02;;;6.53;;
75419;SDS011;63998;52.488;13.428;2024-01-30T02:14:32;11.82;;;7.40;;
75419;SDS011;63998;52.488;13.428;2024-01-30T02:16:57;11.25;;;6.90;;
75419;SDS011;63998;52.488;13.428;2024-01-30T02:19:23;13.88;;;7.25;;
75419;SDS011;63998;52.488;13.428;2024-01-30T02:21:51;13.02;;;6.65;;
75419;SDS011;63998;52.488;13.428;2024-01-30T02:24:17;13.10;;;7.13;;
75419;SDS011;63998;52.488;13.428;2024-01-30T02:26:42;14.20;;;6.97;;
75419;SDS011;63998;52.488;13.428;2024-01-30T02:29:14;15.85;;;6.95;;
75419;SDS011;63998;52.488;13.428;2024-01-30T02:31:39;12.50;;;6.85;;
75419;SDS011;63998;52.488;13.428;2024-01-30T02:34:07;12.45;;;7.22;;
75419;SDS011;63998;52.488;13.428;2024-01-30T02:36:33;14.00;;;6.93;;
75419;SDS011;63998;52.488;13.428;2024-01-30T02:38:58;13.15;;;6.93;;
75419;SDS011;63998;52.488;13.428;2024-01-30T02:41:24;11.32;;;7.50;;
75419;SDS011;63998;52.488;13.428;2024-01-30T02:43:49;14.35;;;6.90;;
75419;SDS011;63998;52.488;13.428;2024-01-30T02:46:17;11.40;;;6.68;;
75419;SDS011;63998;52.488;13.428;2024-01-30T02:48:44;11.38;;;6.88;;
75419;SDS011;63998;52.488;13.428;2024-01-30T02:51:12;10.43;;;6.53;;
75419;SDS011;63998;52.488;13.428;2024-01-30T02:53:38;12.68;;;6.72;;
75419;SDS011;63998;52.488;13.428;2024-01-30T02:56:03;11.60;;;7.00;;
75419;SDS011;63998;52.488;13.428;2024-01-30T02:58:30;12.15;;;6.63;;
75419;SDS011;63998;52.488;13.428;2024-01-30T03:00:56;13.73;;;8.30;;
75419;SDS011;63998;52.488;13.428;2024-01-30T03:03:21;10.25;;;6.28;;
75419;SDS011;63998;52.488;13.428;2024-01-30T03:05:47;13.50;;;7.38;;
75419;SDS011;63998;52.488;13.428;2024-01-30T03:08:13;10.95;;;7.07;;
75419;SDS011;63998;52.488;13.428;2024-01-30T03:10:38;14.02;;;7.15;;
75419;SDS011;63998;52.488;13.428;2024-01-30T03:13:04;12.95;;;7.00;;
75419;SDS011;63998;52.488;13.428;2024-01-30T03:15:29;10.43;;;6.15;;
75419;SDS011;63998;52.488;13.428;2024-01-30T03:17:54;13.10;;;6.40;;
75419;SDS011;63998;52.488;13.428;2024-01-30T03:20:22;12.65;;;6.90;;
75419;SDS011;63998;52.488;13.428;2024-01-30T03:22:47;11.48;;;6.25;;
75419;SDS011;63998;52.488;13.428;2024-01-30T03:25:13;10.77;;;6.72;;
75419;SDS011;63998;52.488;13.428;2024-01-30T03:27:38;14.70;;;6.05;;
75419;SDS011;63998;52.488;13.428;2024-01-30T03:30:04;9.65;;;6.28;;
75419;SDS011;63998;52.488;13.428;2024-01-30T03:32:30;12.43;;;6.95;;
75419;SDS011;63998;52.488;13.428;2024-01-30T03:34:58;12.20;;;6.90;;
75419;SDS011;63998;52.488;13.428;2024-01-30T03:37:24;11.70;;;6.90;;
75419;SDS011;63998;52.488;13.428;2024-01-30T03:39:49;11.48;;;6.55;;
75419;SDS011;63998;52.488;13.428;2024-01-30T03:42:15;13.68;;;6.75;;
75419;SDS011;63998;52.488;13.428;2024-01-30T03:44:40;13.57;;;7.05;;
75419;SDS011;63998;52.488;13.428;2024-01-30T03:47:06;13.85;;;6.93;;
75419;SDS011;63998;52.488;13.428;2024-01-30T03:49:31;12.27;;;6.55;;
75419;SDS011;63998;52.488;13.428;2024-01-30T03:51:57;10.30;;;6.43;;
75419;SDS011;63998;52.488;13.428;2024-01-30T03:54:22;11.82;;;6.95;;
75419;SDS011;63998;52.488;13.428;2024-01-30T03:56:47;10.38;;;6.00;;
75419;SDS011;63998;52.488;13.428;2024-01-30T03:59:16;11.32;;;6.90;;
75419;SDS011;63998;52.488;13.428;2024-01-30T04:01:48;12.07;;;6.03;;
75419;SDS011;63998;52.488;13.428;2024-01-30T04:04:14;12.80;;;6.90;;
75419;SDS011;63998;52.488;13.428;2024-01-30T04:06:41;9.80;;;6.37;;
75419;SDS011;63998;52.488;13.428;2024-01-30T04:09:22;12.48;;;6.95;;
75419;SDS011;63998;52.488;13.428;2024-01-30T04:11:53;12.52;;;6.30;;
75419;SDS011;63998;52.488;13.428;2024-01-30T04:14:29;11.77;;;6.40;;
75419;SDS011;63998;52.488;13.428;2024-01-30T04:16:57;13.23;;;6.47;;
75419;SDS011;63998;52.488;13.428;2024-01-30T04:19:23;11.77;;;6.60;;
75419;SDS011;63998;52.488;13.428;2024-01-30T04:21:50;10.98;;;6.75;;
75419;SDS011;63998;52.488;13.428;2024-01-30T04:24:34;10.75;;;6.47;;
75419;SDS011;63998;52.488;13.428;2024-01-30T04:27:05;11.38;;;6.72;;
75419;SDS011;63998;52.488;13.428;2024-01-30T04:29:32;12.30;;;6.90;;
75419;SDS011;63998;52.488;13.428;2024-01-30T04:31:59;11.95;;;6.50;;
75419;SDS011;63998;52.488;13.428;2024-01-30T04:34:37;10.68;;;6.25;;
75419;SDS011;63998;52.488;13.428;2024-01-30T04:49:24;14.05;;;6.68;;
75419;SDS011;63998;52.488;13.428;2024-01-30T04:55:18;11.50;;;6.47;;
75419;SDS011;63998;52.488;13.428;2024-01-30T04:57:43;12.70;;;6.93;;
75419;SDS011;63998;52.488;13.428;2024-01-30T05:00:09;15.18;;;7.15;;
75419;SDS011;63998;52.488;13.428;2024-01-30T05:02:35;9.73;;;6.35;;
75419;SDS011;63998;52.488;13.428;2024-01-30T05:05:03;13.98;;;7.38;;
75419;SDS011;63998;52.488;13.428;2024-01-30T05:07:29;12.40;;;6.72;;
75419;SDS011;63998;52.488;13.428;2024-01-30T05:09:54;12.68;;;7.50;;
75419;SDS011;63998;52.488;13.428;2024-01-30T05:12:20;11.82;;;6.72;;
75419;SDS011;63998;52.488;13.428;2024-01-30T05:14:57;11.55;;;7.07;;
75419;SDS011;63998;52.488;13.428;2024-01-30T05:17:31;11.77;;;6.82;;
75419;SDS011;63998;52.488;13.428;2024-01-30T05:20:00;10.95;;;6.80;;
75419;SDS011;63998;52.488;13.428;2024-01-30T05:22:27;14.63;;;7.63;;
75419;SDS011;63998;52.488;13.428;2024-01-30T05:28:34;11.98;;;7.00;;
75419;SDS011;63998;52.488;13.428;2024-01-30T05:31:00;15.10;;;7.38;;
75419;SDS011;63998;52.488;13.428;2024-01-30T05:33:25;16.17;;;8.27;;
75419;SDS011;63998;52.488;13.428;2024-01-30T05:38:45;11.95;;;7.10;;
75419;SDS011;63998;52.488;13.428;2024-01-30T05:42:09;11.95;;;6.97;;
75419;SDS011;63998;52.488;13.428;2024-01-30T05:44:35;12.30;;;7.18;;
75419;SDS011;63998;52.488;13.428;2024-01-30T05:47:21;13.68;;;7.40;;
75419;SDS011;63998;52.488;13.428;2024-01-30T05:49:46;12.27;;;6.78;;
75419;SDS011;63998;52.488;13.428;2024-01-30T05:55:39;13.35;;;7.25;;
75419;SDS011;63998;52.488;13.428;2024-01-30T05:58:10;13.50;;;7.00;;
75419;SDS011;63998;52.488;13.428;2024-01-30T06:01:17;13.20;;;6.95;;
75419;SDS011;63998;52.488;13.428;2024-01-30T06:03:57;14.57;;;7.13;;
75419;SDS011;63998;52.488;13.428;2024-01-30T06:06:33;14.20;;;7.07;;
75419;SDS011;63998;52.488;13.428;2024-01-30T06:08:58;12.63;;;7.10;;
75419;SDS011;63998;52.488;13.428;2024-01-30T06:11:24;13.43;;;8.00;;
75419;SDS011;63998;52.488;13.428;2024-01-30T06:13:49;16.83;;;7.68;;
75419;SDS011;63998;52.488;13.428;2024-01-30T06:16:17;15.75;;;7.32;;
75419;SDS011;63998;52.488;13.428;2024-01-30T06:18:44;14.27;;;7.40;;
75419;SDS011;63998;52.488;13.428;2024-01-30T06:21:12;16.55;;;8.30;;
75419;SDS011;63998;52.488;13.428;2024-01-30T06:23:38;14.38;;;7.72;;
75419;SDS011;63998;52.488;13.428;2024-01-30T06:29:09;15.45;;;7.65;;
75419;SDS011;63998;52.488;13.428;2024-01-30T06:31:39;14.50;;;8.38;;
75419;SDS011;63998;52.488;13.428;2024-01-30T06:34:27;14.20;;;7.07;;
75419;SDS011;63998;52.488;13.428;2024-01-30T06:37:10;13.98;;;7.32;;
75419;SDS011;63998;52.488;13.428;2024-01-30T06:39:43;13.60;;;7.40;;
75419;SDS011;63998;52.488;13.428;2024-01-30T06:54:56;16.58;;;7.25;;
75419;SDS011;63998;52.488;13.428;2024-01-30T06:57:25;15.02;;;7.53;;
75419;SDS011;63998;52.488;13.428;2024-01-30T07:00:14;14.27;;;7.18;;
75419;SDS011;63998;52.488;13.428;2024-01-30T07:05:58;15.00;;;7.35;;
75419;SDS011;63998;52.488;13.428;2024-01-30T07:08:33;12.98;;;7.70;;
75419;SDS011;63998;52.488;13.428;2024-01-30T07:11:03;16.13;;;8.50;;
75419;SDS011;63998;52.488;13.428;2024-01-30T07:16:56;11.80;;;6.88;;
75419;SDS011;63998;52.488;13.428;2024-01-30T07:19:21;15.20;;;7.43;;
75419;SDS011;63998;52.488;13.428;2024-01-30T07:21:49;15.38;;;7.90;;
75419;SDS011;63998;52.488;13.428;2024-01-30T07:24:17;14.07;;;8.13;;
75419;SDS011;63998;52.488;13.428;2024-01-30T07:26:42;17.30;;;8.55;;
75419;SDS011;63998;52.488;13.428;2024-01-30T07:29:08;18.03;;;8.70;;
75419;SDS011;63998;52.488;13.428;2024-01-30T07:31:35;14.77;;;8.20;;
75419;SDS011;63998;52.488;13.428;2024-01-30T07:34:01;14.10;;;7.38;;
75419;SDS011;63998;52.488;13.428;2024-01-30T07:36:31;18.05;;;8.48;;
75419;SDS011;63998;52.488;13.428;2024-01-30T07:38:56;12.77;;;8.23;;
75419;SDS011;63998;52.488;13.428;2024-01-30T07:41:22;17.80;;;8.03;;
75419;SDS011;63998;52.488;13.428;2024-01-30T07:43:52;15.20;;;7.63;;
75419;SDS011;63998;52.488;13.428;2024-01-30T07:46:21;12.15;;;8.32;;
75419;SDS011;63998;52.488;13.428;2024-01-30T07:49:02;17.55;;;8.48;;
75419;SDS011;63998;52.488;13.428;2024-01-30T07:51:27;17.98;;;8.68;;
75419;SDS011;63998;52.488;13.428;2024-01-30T07:53:54;18.23;;;8.65;;
75419;SDS011;63998;52.488;13.428;2024-01-30T07:56:19;14.40;;;7.80;;
75419;SDS011;63998;52.488;13.428;2024-01-30T07:58:52;20.70;;;8.68;;
75419;SDS011;63998;52.488;13.428;2024-01-30T08:01:18;16.83;;;8.40;;
75419;SDS011;63998;52.488;13.428;2024-01-30T08:03:43;16.20;;;8.15;;
75419;SDS011;63998;52.488;13.428;2024-01-30T08:06:09;17.73;;;8.48;;
75419;SDS011;63998;52.488;13.428;2024-01-30T08:08:35;20.05;;;10.05;;
75419;SDS011;63998;52.488;13.428;2024-01-30T08:11:00;16.08;;;7.90;;
75419;SDS011;63998;52.488;13.428;2024-01-30T08:13:25;16.20;;;8.32;;
75419;SDS011;63998;52.488;13.428;2024-01-30T08:15:51;17.42;;;8.52;;
75419;SDS011;63998;52.488;13.428;2024-01-30T08:18:16;21.75;;;9.10;;
75419;SDS011;63998;52.488;13.428;2024-01-30T08:20:41;20.55;;;9.13;;
75419;SDS011;63998;52.488;13.428;2024-01-30T08:23:07;21.50;;;8.90;;
75419;SDS011;63998;52.488;13.428;2024-01-30T08:25:33;18.23;;;8.80;;
75419;SDS011;63998;52.488;13.428;2024-01-30T08:27:58;14.98;;;7.90;;
75419;SDS011;63998;52.488;13.428;2024-01-30T08:30:23;15.68;;;8.15;;
75419;SDS011;63998;52.488;13.428;2024-01-30T08:32:49;16.25;;;8.52;;
75419;SDS011;63998;52.488;13.428;2024-01-30T08:35:14;22.98;;;8.55;;
75419;SDS011;63998;52.488;13.428;2024-01-30T08:37:41;15.13;;;8.10;;
75419;SDS011;63998;52.488;13.428;2024-01-30T08:40:07;17.02;;;8.80;;
75419;SDS011;63998;52.488;13.428;2024-01-30T08:42:33;19.27;;;8.98;;
75419;SDS011;63998;52.488;13.428;2024-01-30T08:44:59;14.38;;;8.23;;
75419;SDS011;63998;52.488;13.428;2024-01-30T08:47:24;13.95;;;7.90;;
75419;SDS011;63998;52.488;13.428;2024-01-30T08:49:50;13.75;;;7.93;;
75419;SDS011;63998;52.488;13.428;2024-01-30T08:52:16;15.55;;;8.50;;
75419;SDS011;63998;52.488;13.428;2024-01-30T08:54:41;16.77;;;7.70;;
75419;SDS011;63998;52.488;13.428;2024-01-30T08:57:06;15.13;;;8.00;;
75419;SDS011;63998;52.488;13.428;2024-01-30T08:59:32;14.35;;;7.82;;
75419;SDS011;63998;52.488;13.428;2024-01-30T09:01:58;14.13;;;7.88;;
75419;SDS011;63998;52.488;13.428;2024-01-30T09:04:24;13.75;;;7.68;;
75419;SDS011;63998;52.488;13.428;2024-01-30T09:06:50;12.10;;;6.93;;
75419;SDS011;63998;52.488;13.428;2024-01-30T09:09:15;14.80;;;7.57;;
75419;SDS011;63998;52.488;13.428;2024-01-30T09:11:43;14.20;;;7.65;;
75419;SDS011;63998;52.488;13.428;2024-01-30T09:14:10;18.00;;;7.32;;
75419;SDS011;63998;52.488;13.428;2024-01-30T09:16:36;14.07;;;7.07;;
75419;SDS011;63998;52.488;13.428;2024-01-30T09:19:02;12.32;;;7.32;;
75419;SDS011;63998;52.488;13.428;2024-01-30T09:21:27;14.98;;;6.97;;
75419;SDS011;63998;52.488;13.428;2024-01-30T09:23:54;12.82;;;8.00;;
75419;SDS011;63998;52.488;13.428;2024-01-30T09:26:19;14.38;;;7.13;;
75419;SDS011;63998;52.488;13.428;2024-01-30T09:28:45;13.43;;;6.80;;
75419;SDS011;63998;52.488;13.428;2024-01-30T09:31:10;12.13;;;7.30;;
75419;SDS011;63998;52.488;13.428;2024-01-30T09:33:36;14.18;;;7.43;;
75419;SDS011;63998;52.488;13.428;2024-01-30T09:36:01;13.65;;;7.47;;
75419;SDS011;63998;52.488;13.428;2024-01-30T09:38:26;12.75;;;7.75;;
75419;SDS011;63998;52.488;13.428;2024-01-30T09:40:53;11.20;;;7.00;;
75419;SDS011;63998;52.488;13.428;2024-01-30T09:43:22;12.60;;;6.30;;
75419;SDS011;63998;52.488;13.428;2024-01-30T09:45:49;11.52;;;7.18;;
75419;SDS011;63998;52.488;13.428;2024-01-30T09:48:16;12.80;;;7.88;;
75419;SDS011;63998;52.488;13.428;2024-01-30T09:50:41;13.07;;;7.15;;
75419;SDS011;63998;52.488;13.428;2024-01-30T09:53:07;13.18;;;7.35;;
75419;SDS011;63998;52.488;13.428;2024-01-30T09:55:34;12.50;;;7.25;;
75419;SDS011;63998;52.488;13.428;2024-01-30T09:58:01;13.13;;;7.40;;
75419;SDS011;63998;52.488;13.428;2024-01-30T10:00:26;10.65;;;6.78;;
75419;SDS011;63998;52.488;13.428;2024-01-30T10:02:52;12.13;;;7.25;;
75419;SDS011;63998;52.488;13.428;2024-01-30T10:05:18;11.77;;;6.50;;
75419;SDS011;63998;52.488;13.428;2024-01-30T10:07:52;13.00;;;6.25;;
75419;SDS011;63998;52.488;13.428;2024-01-30T10:10:21;11.85;;;7.00;;
75419;SDS011;63998;52.488;13.428;2024-01-30T10:12:47;11.25;;;6.68;;
75419;SDS011;63998;52.488;13.428;2024-01-30T10:15:17;12.95;;;6.80;;
75419;SDS011;63998;52.488;13.428;2024-01-30T10:17:44;11.77;;;6.85;;
75419;SDS011;63998;52.488;13.428;2024-01-30T10:20:10;13.57;;;6.78;;
75419;SDS011;63998;52.488;13.428;2024-01-30T10:22:36;10.98;;;6.55;;
75419;SDS011;63998;52.488;13.428;2024-01-30T10:25:01;10.93;;;6.50;;
75419;SDS011;63998;52.488;13.428;2024-01-30T10:27:27;14.02;;;7.35;;
75419;SDS011;63998;52.488;13.428;2024-01-30T10:29:54;11.32;;;6.63;;
75419;SDS011;63998;52.488;13.428;2024-01-30T10:32:20;10.45;;;6.47;;
75419;SDS011;63998;52.488;13.428;2024-01-30T10:34:46;12.70;;;6.40;;
75419;SDS011;63998;52.488;13.428;2024-01-30T10:37:11;11.52;;;6.60;;
75419;SDS011;63998;52.488;13.428;2024-01-30T10:39:40;13.18;;;6.07;;
75419;SDS011;63998;52.488;13.428;2024-01-30T10:42:06;11.23;;;6.35;;
75419;SDS011;63998;52.488;13.428;2024-01-30T10:47:32;8.98;;;6.18;;
75419;SDS011;63998;52.488;13.428;2024-01-30T10:49:59;12.25;;;6.45;;
75419;SDS011;63998;52.488;13.428;2024-01-30T10:52:26;8.23;;;5.43;;
75419;SDS011;63998;52.488;13.428;2024-01-30T10:54:56;9.25;;;6.00;;
75419;SDS011;63998;52.488;13.428;2024-01-30T10:57:24;12.80;;;5.88;;
75419;SDS011;63998;52.488;13.428;2024-01-30T10:59:53;9.40;;;5.22;;
75419;SDS011;63998;52.488;13.428;2024-01-30T11:02:22;11.38;;;5.35;;
75419;SDS011;63998;52.488;13.428;2024-01-30T11:04:49;10.63;;;5.63;;
75419;SDS011;63998;52.488;13.428;2024-01-30T11:07:17;6.30;;;3.78;;
75419;SDS011;63998;52.488;13.428;2024-01-30T11:10:04;8.73;;;4.40;;
75419;SDS011;63998;52.488;13.428;2024-01-30T11:12:33;7.95;;;3.90;;
75419;SDS011;63998;52.488;13.428;2024-01-30T11:20:20;9.95;;;5.00;;
75419;SDS011;63998;52.488;13.428;2024-01-30T11:22:47;8.38;;;4.25;;
75419;SDS011;63998;52.488;13.428;2024-01-30T11:25:16;9.27;;;4.63;;
75419;SDS011;63998;52.488;13.428;2024-01-30T11:27:44;8.27;;;4.80;;
75419;SDS011;63998;52.488;13.428;2024-01-30T11:36:25;11.13;;;4.50;;
75419;SDS011;63998;52.488;13.428;2024-01-30T11:38:19;6.50;;;4.13;;
75419;SDS011;63998;52.488;13.428;2024-01-30T11:40:48;7.32;;;3.70;;
75419;SDS011;63998;52.488;13.428;2024-01-30T11:45:52;6.55;;;4.45;;
75419;SDS011;63998;52.488;13.428;2024-01-30T11:48:18;8.40;;;4.78;;
75419;SDS011;63998;52.488;13.428;2024-01-30T11:50:43;8.60;;;4.55;;
75419;SDS011;63998;52.488;13.428;2024-01-30T11:53:12;7.72;;;4.60;;
75419;SDS011;63998;52.488;13.428;2024-01-30T11:55:37;9.13;;;4.95;;
75419;SDS011;63998;52.488;13.428;2024-01-30T11:58:03;7.90;;;4.50;;
75419;SDS011;63998;52.488;13.428;2024-01-30T12:00:29;9.43;;;4.85;;
75419;SDS011;63998;52.488;13.428;2024-01-30T12:02:55;8.85;;;4.35;;
75419;SDS011;63998;52.488;13.428;2024-01-30T12:05:21;9.13;;;4.90;;
75419;SDS011;63998;52.488;13.428;2024-01-30T12:07:47;8.65;;;4.97;;
75419;SDS011;63998;52.488;13.428;2024-01-30T12:10:13;6.93;;;4.43;;
75419;SDS011;63998;52.488;13.428;2024-01-30T12:12:39;9.85;;;5.47;;
75419;SDS011;63998;52.488;13.428;2024-01-30T12:15:06;8.55;;;5.03;;
75419;SDS011;63998;52.488;13.428;2024-01-30T12:17:32;8.05;;;5.57;;
75419;SDS011;63998;52.488;13.428;2024-01-30T12:20:08;10.23;;;5.35;;
75419;SDS011;63998;52.488;13.428;2024-01-30T12:22:45;10.07;;;5.07;;
75419;SDS011;63998;52.488;13.428;2024-01-30T12:25:15;9.75;;;4.90;;
75419;SDS011;63998;52.488;13.428;2024-01-30T12:27:42;8.32;;;4.82;;
75419;SDS011;63998;52.488;13.428;2024-01-30T12:30:12;8.48;;;5.10;;
75419;SDS011;63998;52.488;13.428;2024-01-30T12:32:39;9.07;;;4.95;;
75419;SDS011;63998;52.488;13.428;2024-01-30T12:35:13;11.70;;;5.18;;
75419;SDS011;63998;52.488;13.428;2024-01-30T12:37:40;8.38;;;5.20;;
75419;SDS011;63998;52.488;13.428;2024-01-30T12:40:08;8.65;;;4.75;;
75419;SDS011;63998;52.488;13.428;2024-01-30T12:42:34;7.10;;;5.05;;
75419;SDS011;63998;52.488;13.428;2024-01-30T12:45:00;8.48;;;4.80;;
75419;SDS011;63998;52.488;13.428;2024-01-30T12:47:27;7.60;;;5.03;;
75419;SDS011;63998;52.488;13.428;2024-01-30T12:49:52;9.77;;;5.38;;
75419;SDS011;63998;52.488;13.428;2024-01-30T12:52:19;8.00;;;4.97;;
75419;SDS011;63998;52.488;13.428;2024-01-30T12:54:46;10.90;;;6.07;;
75419;SDS011;63998;52.488;13.428;2024-01-30T12:57:11;9.20;;;5.22;;
75419;SDS011;63998;52.488;13.428;2024-01-30T12:59:37;8.10;;;5.13;;
75419;SDS011;63998;52.488;13.428;2024-01-30T13:02:02;7.63;;;4.95;;
75419;SDS011;63998;52.488;13.428;2024-01-30T13:04:28;9.88;;;5.45;;
75419;SDS011;63998;52.488;13.428;2024-01-30T13:06:54;8.45;;;5.15;;
75419;SDS011;63998;52.488;13.428;2024-01-30T13:09:19;9.30;;;4.97;;
75419;SDS011;63998;52.488;13.428;2024-01-30T13:11:45;8.27;;;4.95;;
75419;SDS011;63998;52.488;13.428;2024-01-30T13:14:10;9.57;;;5.50;;
75419;SDS011;63998;52.488;13.428;2024-01-30T13:16:36;10.20;;;5.70;;
75419;SDS011;63998;52.488;13.428;2024-01-30T13:19:01;8.43;;;5.20;;
75419;SDS011;63998;52.488;13.428;2024-01-30T13:21:27;9.77;;;5.22;;
75419;SDS011;63998;52.488;13.428;2024-01-30T13:23:53;10.07;;;5.63;;
75419;SDS011;63998;52.488;13.428;2024-01-30T13:26:19;9.00;;;5.57;;
75419;SDS011;63998;52.488;13.428;2024-01-30T13:28:45;8.27;;;4.80;;
75419;SDS011;63998;52.488;13.428;2024-01-30T13:31:10;10.18;;;5.32;;
75419;SDS011;63998;52.488;13.428;2024-01-30T13:44:35;8.43;;;5.38;;
75419;SDS011;63998;52.488;13.428;2024-01-30T13:47:03;9.23;;;5.90;;
75419;SDS011;63998;52.488;13.428;2024-01-30T13:59:15;9.95;;;5.30;;
75419;SDS011;63998;52.488;13.428;2024-01-30T14:11:07;9.82;;;5.68;;
75419;SDS011;63998;52.488;13.428;2024-01-30T14:13:42;8.90;;;5.25;;
75419;SDS011;63998;52.488;13.428;2024-01-30T14:16:24;10.68;;;5.47;;
75419;SDS011;63998;52.488;13.428;2024-01-30T14:22:32;11.63;;;5.93;;
75419;SDS011;63998;52.488;13.428;2024-01-30T14:34:05;9.10;;;5.13;;
75419;SDS011;63998;52.488;13.428;2024-01-30T14:36:30;9.10;;;5.45;;
75419;SDS011;63998;52.488;13.428;2024-01-30T14:38:56;9.15;;;4.78;;
75419;SDS011;63998;52.488;13.428;2024-01-30T14:44:36;9.52;;;5.18;;
75419;SDS011;63998;52.488;13.428;2024-01-30T14:47:12;8.85;;;5.40;;
75419;SDS011;63998;52.488;13.428;2024-01-30T14:49:39;10.45;;;5.53;;
75419;SDS011;63998;52.488;13.428;2024-01-30T14:58:45;8.48;;;5.28;;
75419;SDS011;63998;52.488;13.428;2024-01-30T15:04:58;9.25;;;5.20;;
75419;SDS011;63998;52.488;13.428;2024-01-30T15:07:23;9.20;;;5.45;;
75419;SDS011;63998;52.488;13.428;2024-01-30T15:09:49;8.25;;;6.00;;
75419;SDS011;63998;52.488;13.428;2024-01-30T15:12:14;10.80;;;5.70;;
75419;SDS011;63998;52.488;13.428;2024-01-30T15:14:39;9.20;;;5.40;;
75419;SDS011;63998;52.488;13.428;2024-01-30T15:17:05;10.13;;;5.37;;
75419;SDS011;63998;52.488;13.428;2024-01-30T15:19:30;10.95;;;5.72;;
75419;SDS011;63998;52.488;13.428;2024-01-30T15:21:56;10.77;;;5.60;;
75419;SDS011;63998;52.488;13.428;2024-01-30T15:24:21;9.27;;;5.97;;
75419;SDS011;63998;52.488;13.428;2024-01-30T15:26:49;11.55;;;6.18;;
75419;SDS011;63998;52.488;13.428;2024-01-30T15:29:15;12.45;;;6.05;;
75419;SDS011;63998;52.488;13.428;2024-01-30T15:31:40;10.15;;;5.65;;
75419;SDS011;63998;52.488;13.428;2024-01-30T15:34:05;10.17;;;5.83;;
75419;SDS011;63998;52.488;13.428;2024-01-30T15:36:31;8.23;;;5.53;;
75419;SDS011;63998;52.488;13.428;2024-01-30T15:38:56;8.53;;;5.70;;
75419;SDS011;63998;52.488;13.428;2024-01-30T15:41:22;11.52;;;6.45;;
75419;SDS011;63998;52.488;13.428;2024-01-30T15:43:47;9.90;;;6.03;;
75419;SDS011;63998;52.488;13.428;2024-01-30T15:46:12;11.40;;;7.07;;
75419;SDS011;63998;52.488;13.428;2024-01-30T15:48:38;12.55;;;7.00;;
75419;SDS011;63998;52.488;13.428;2024-01-30T15:51:04;7.43;;;6.00;;
75419;SDS011;63998;52.488;13.428;2024-01-30T15:53:30;12.85;;;6.90;;
75419;SDS011;63998;52.488;13.428;2024-01-30T15:55:55;10.10;;;6.53;;
75419;SDS011;63998;52.488;13.428;2024-01-30T15:58:20;13.60;;;6.50;;
75419;SDS011;63998;52.488;13.428;2024-01-30T16:00:46;11.50;;;6.57;;
75419;SDS011;63998;52.488;13.428;2024-01-30T16:03:11;11.15;;;6.00;;
75419;SDS011;63998;52.488;13.428;2024-01-30T16:05:36;10.25;;;5.78;;
75419;SDS011;63998;52.488;13.428;2024-01-30T16:08:02;11.20;;;5.93;;
75419;SDS011;63998;52.488;13.428;2024-01-30T16:10:27;14.55;;;8.50;;
75419;SDS011;63998;52.488;13.428;2024-01-30T16:12:53;10.40;;;6.78;;
75419;SDS011;63998;52.488;13.428;2024-01-30T16:15:18;10.90;;;6.38;;
75419;SDS011;63998;52.488;13.428;2024-01-30T16:17:44;11.20;;;5.70;;
75419;SDS011;63998;52.488;13.428;2024-01-30T16:20:09;9.93;;;6.28;;
75419;SDS011;63998;52.488;13.428;2024-01-30T16:22:35;9.85;;;6.35;;
75419;SDS011;63998;52.488;13.428;2024-01-30T16:25:01;9.70;;;6.15;;
75419;SDS011;63998;52.488;13.428;2024-01-30T16:27:30;10.05;;;6.60;;